Princeton, Oregon
Current Conditions -  °F | °C
As of 11:53 PM on Monday 20 Oct 2014 (Local Time) from KBNO Reporting Station
Broken Clouds Broken Clouds  
Wind Chill:   Ceiling: 9000
Heat Index:   Visibility: 10mi
Dew Point:   Wind: 3mph
Humidity: 93%   Direction: 140°SE
Pressure: 29.89"   Gusts: NA
Location:  43.25°N, 118.58°W
Report Text: KBNO 210653Z AUTO 14003KT 10SM BKN090 BKN120 07/06 A2989 RMK AO2 RAE0559 PRESFR SLP102 P0000 T00670056
Loading
Personal Weather Stations






























Interactive Weather Map
Tropical Storm Tracking
New forecast layout! Learn more

10-Day Weather Forecast

Advertisements
Track Severe Weather on mobile